createdAt,value
2023-04-14T00:07:02.667Z,100.00
2023-04-14T00:16:35.136Z,100.00
2023-04-14T00:26:13.065Z,100.00
2023-04-14T00:35:44.067Z,100.00
2023-04-14T00:45:15.493Z,100.00
2023-04-14T00:54:50.370Z,100.00
2023-04-14T01:04:21.939Z,100.00
2023-04-14T01:13:56.093Z,100.00
2023-04-14T01:23:27.447Z,100.00
2023-04-14T01:33:01.517Z,100.00
2023-04-14T01:42:32.408Z,100.00
2023-04-14T01:52:04.704Z,100.00
2023-04-14T02:01:38.093Z,100.00
2023-04-14T02:11:10.356Z,100.00
2023-04-14T02:20:41.964Z,100.00
2023-04-14T02:30:16.548Z,100.00
2023-04-14T02:39:48.284Z,100.00
2023-04-14T02:49:21.360Z,100.00
2023-04-14T02:58:56.001Z,100.00
2023-04-14T03:08:26.876Z,100.00
2023-04-14T03:17:58.494Z,100.00
2023-04-14T03:27:31.758Z,100.00
2023-04-14T03:37:04.587Z,100.00
2023-04-14T03:46:36.272Z,100.00
2023-04-14T03:56:09.340Z,100.00
2023-04-14T04:05:42.717Z,100.00
2023-04-14T04:15:17.738Z,100.00
2023-04-14T04:24:49.309Z,100.00
2023-04-14T04:34:22.412Z,100.00
2023-04-14T04:43:55.081Z,100.00
2023-04-14T04:53:30.039Z,100.00
2023-04-14T05:03:03.605Z,100.00
2023-04-14T05:12:36.671Z,100.00
2023-04-14T05:22:08.360Z,100.00
2023-04-14T05:31:43.615Z,100.00
2023-04-14T05:41:14.597Z,100.00
2023-04-14T05:50:49.182Z,100.00
2023-04-14T06:00:20.021Z,100.00
2023-04-14T06:09:53.791Z,100.00
2023-04-14T06:19:27.385Z,100.00
2023-04-14T06:29:01.376Z,100.00
2023-04-14T06:38:36.544Z,100.00
2023-04-14T06:48:10.653Z,100.00
2023-04-14T06:57:44.067Z,100.00
2023-04-14T07:07:16.388Z,100.00
2023-04-14T07:08:18.889Z,100.00
2023-04-14T07:09:21.303Z,100.00
2023-04-14T07:18:54.736Z,100.00
2023-04-14T07:19:58.785Z,100.00
2023-04-14T07:29:29.963Z,100.00
2023-04-14T07:30:32.372Z,100.00
2023-04-14T07:31:36.420Z,100.00
2023-04-14T07:32:38.692Z,100.00
2023-04-14T07:33:42.677Z,100.00
2023-04-14T07:34:44.990Z,100.00
2023-04-14T07:44:16.748Z,100.00
2023-04-14T07:45:19.141Z,100.00
2023-04-14T07:46:23.194Z,100.00
2023-04-14T07:47:25.428Z,100.00
2023-04-14T07:48:27.846Z,100.00
2023-04-14T07:49:30.164Z,100.00
2023-04-14T07:50:32.576Z,100.00
2023-04-14T07:51:35.034Z,100.00
2023-04-14T07:52:39.043Z,100.00
2023-04-14T07:53:41.322Z,100.00
2023-04-14T07:54:43.731Z,100.00
2023-04-14T07:55:46.038Z,99.37
2023-04-14T08:05:18.532Z,99.74
2023-04-14T08:06:22.525Z,99.74
2023-04-14T08:07:26.387Z,98.52
2023-04-14T08:08:28.707Z,97.79
2023-04-14T08:09:32.706Z,97.44
2023-04-14T08:10:36.564Z,95.42
2023-04-14T08:11:38.896Z,94.46
2023-04-14T08:12:42.921Z,93.65
2023-04-14T08:13:45.213Z,93.08
2023-04-14T08:14:49.235Z,91.75
2023-04-14T08:15:51.676Z,91.05
2023-04-14T08:16:54.069Z,90.06
2023-04-14T08:17:56.487Z,89.80
2023-04-14T08:18:59.054Z,89.82
2023-04-14T08:20:02.922Z,91.11
2023-04-14T08:21:05.404Z,91.36
2023-04-14T08:22:07.756Z,91.75
2023-04-14T08:23:11.757Z,92.03
2023-04-14T08:24:15.819Z,90.59
2023-04-14T08:25:18.085Z,90.92
2023-04-14T08:26:22.126Z,91.02
2023-04-14T08:27:24.409Z,89.59
2023-04-14T08:28:26.858Z,89.00
2023-04-14T08:29:29.234Z,88.50
2023-04-14T08:30:31.662Z,89.69
2023-04-14T08:31:35.665Z,89.54
2023-04-14T08:32:37.980Z,87.85
2023-04-14T08:33:40.372Z,84.30
2023-04-14T08:35:34.853Z,83.98
2023-04-14T08:35:45.212Z,84.03
2023-04-14T08:36:47.612Z,84.59
2023-04-14T08:37:50.014Z,81.98
2023-04-14T08:38:54.004Z,80.23
2023-04-14T08:39:57.917Z,82.27
2023-04-14T08:41:01.901Z,83.19
2023-04-14T08:42:05.737Z,81.59
2023-04-14T08:43:10.255Z,80.16
2023-04-14T08:44:11.955Z,79.92
2023-04-14T08:45:16.008Z,80.38
2023-04-14T08:46:20.227Z,81.90
2023-04-14T08:47:22.420Z,83.07
2023-04-14T08:48:25.615Z,81.94
2023-04-14T08:49:27.313Z,82.43
2023-04-14T08:50:31.280Z,82.32
2023-04-14T08:51:33.598Z,82.53
2023-04-14T08:52:37.658Z,80.10
2023-04-14T08:53:39.900Z,80.50
2023-04-14T08:54:43.894Z,80.52
2023-04-14T08:55:47.803Z,79.06
2023-04-14T08:56:51.616Z,79.25
2023-04-14T08:57:55.573Z,80.25
2023-04-14T08:58:59.468Z,81.23
2023-04-14T09:00:01.744Z,80.89
2023-04-14T09:01:04.216Z,81.96
2023-04-14T09:02:08.268Z,82.37
2023-04-14T09:03:10.581Z,81.80
2023-04-14T09:04:13.041Z,81.74
2023-04-14T09:05:15.342Z,82.99
2023-04-14T09:06:17.777Z,81.90
2023-04-14T09:07:21.719Z,80.61
2023-04-14T09:08:23.952Z,80.35
2023-04-14T09:09:26.451Z,81.37
2023-04-14T09:10:28.853Z,82.44
2023-04-14T09:11:31.266Z,83.16
2023-04-14T09:12:33.752Z,84.13
2023-04-14T09:13:36.144Z,85.07
2023-04-14T09:14:38.584Z,84.88
2023-04-14T09:15:42.608Z,83.87
2023-04-14T09:16:46.515Z,84.66
2023-04-14T09:17:48.815Z,85.13
2023-04-14T09:18:52.823Z,85.04
2023-04-14T09:20:37.110Z,82.97
2023-04-14T09:21:30.274Z,82.34
2023-04-14T09:22:00.093Z,82.13
2023-04-14T09:23:02.465Z,83.67
2023-04-14T09:24:06.538Z,81.85
2023-04-14T09:25:08.860Z,82.90
2023-04-14T09:26:12.904Z,79.97
2023-04-14T09:27:15.147Z,80.20
2023-04-14T09:28:19.585Z,79.84
2023-04-14T09:29:21.525Z,79.21
2023-04-14T09:30:25.555Z,78.94
2023-04-14T09:31:29.531Z,77.30
2023-04-14T09:32:31.802Z,78.36
2023-04-14T09:33:34.318Z,77.93
2023-04-14T09:34:38.301Z,76.23
2023-04-14T09:35:40.712Z,75.60
2023-04-14T09:36:43.123Z,77.06
2023-04-14T09:37:45.569Z,74.39
2023-04-14T09:38:49.632Z,72.87
2023-04-14T09:39:53.540Z,73.99
2023-04-14T09:40:57.403Z,76.62
2023-04-14T09:41:59.792Z,77.54
2023-04-14T09:43:03.793Z,77.25
2023-04-14T09:44:07.714Z,77.23
2023-04-14T09:45:10.139Z,77.70
2023-04-14T09:46:12.556Z,77.43
2023-04-14T09:47:15.112Z,77.96
2023-04-14T09:48:17.514Z,76.85
2023-04-14T09:49:19.930Z,76.65
2023-04-14T09:50:22.277Z,77.38
2023-04-14T09:51:24.759Z,78.32
2023-04-14T09:52:27.088Z,76.09
2023-04-14T09:53:31.137Z,75.38
2023-04-14T09:54:35.054Z,74.94
2023-04-14T09:55:37.462Z,72.21
2023-04-14T09:56:41.274Z,72.87
2023-04-14T09:57:43.630Z,70.35
2023-04-14T09:58:45.966Z,69.70
2023-04-14T09:59:48.486Z,71.37
2023-04-14T10:00:50.825Z,73.39
2023-04-14T10:01:54.935Z,74.69
2023-04-14T10:02:58.846Z,73.42
2023-04-14T10:04:01.087Z,73.16
2023-04-14T10:05:05.230Z,71.97
2023-04-14T10:06:09.024Z,71.25
2023-04-14T10:07:11.434Z,72.59
2023-04-14T10:08:13.896Z,71.40
2023-04-14T10:09:16.108Z,71.83
2023-04-14T10:10:18.550Z,71.72
2023-04-14T10:11:22.678Z,71.99
2023-04-14T10:12:24.779Z,73.61
2023-04-14T10:13:27.139Z,71.61
2023-04-14T10:14:29.633Z,70.94
2023-04-14T10:15:32.070Z,71.61
2023-04-14T10:16:36.147Z,73.31
2023-04-14T10:17:38.347Z,72.80
2023-04-14T10:18:42.341Z,71.02
2023-04-14T10:19:44.605Z,70.31
2023-04-14T10:20:48.632Z,70.82
2023-04-14T10:21:50.947Z,73.03
2023-04-14T10:22:54.928Z,73.93
2023-04-14T10:23:58.832Z,74.36
2023-04-14T10:25:01.165Z,72.67
2023-04-14T10:26:05.213Z,72.60
2023-04-14T10:27:09.153Z,73.84
2023-04-14T10:28:11.458Z,73.92
2023-04-14T10:29:13.964Z,73.14
2023-04-14T10:30:16.399Z,68.67
2023-04-14T10:31:18.787Z,68.94
2023-04-14T10:32:21.259Z,68.59
2023-04-14T10:33:23.717Z,68.39
2023-04-14T10:34:26.214Z,68.01
2023-04-14T10:35:30.300Z,69.82
2023-04-14T10:36:32.621Z,71.73
2023-04-14T10:37:35.063Z,66.35
2023-04-14T10:38:37.540Z,65.71
2023-04-14T10:39:39.957Z,65.39
2023-04-14T10:40:43.968Z,66.34
2023-04-14T10:41:46.506Z,65.38
2023-04-14T10:42:50.485Z,65.73
2023-04-14T10:43:52.825Z,67.46
2023-04-14T10:44:55.267Z,67.71
2023-04-14T10:45:57.674Z,66.52
2023-04-14T10:47:00.226Z,67.29
2023-04-14T10:48:04.222Z,67.16
2023-04-14T10:49:08.132Z,64.94
2023-04-14T10:50:10.500Z,65.85
2023-04-14T10:51:12.962Z,64.06
2023-04-14T10:52:17.105Z,63.85
2023-04-14T10:53:20.882Z,61.41
2023-04-14T10:54:24.782Z,60.51
2023-04-14T10:55:28.676Z,61.51
2023-04-14T10:56:30.959Z,63.56
2023-04-14T10:57:33.423Z,63.16
2023-04-14T10:58:35.868Z,60.93
2023-04-14T10:59:38.296Z,60.14
2023-04-14T11:00:40.757Z,58.30
2023-04-14T11:01:44.774Z,58.02
2023-04-14T11:02:47.063Z,56.79
2023-04-14T11:03:49.642Z,56.18
2023-04-14T11:04:51.852Z,57.31
2023-04-14T11:05:54.308Z,55.54
2023-04-14T11:06:58.412Z,57.00
2023-04-14T11:08:02.197Z,57.98
2023-04-14T11:09:03.243Z,58.06
2023-04-14T11:10:05.578Z,56.14
2023-04-14T11:11:09.692Z,57.77
2023-04-14T11:12:13.581Z,58.34
2023-04-14T11:13:17.924Z,59.90
2023-04-14T11:14:19.884Z,56.95
2023-04-14T11:15:22.398Z,58.78
2023-04-14T11:16:24.910Z,58.56
2023-04-14T11:17:28.922Z,57.74
2023-04-14T11:18:32.829Z,57.17
2023-04-14T11:19:38.262Z,55.81
2023-04-14T11:20:40.445Z,56.12
2023-04-14T11:21:47.523Z,56.49
2023-04-14T11:22:49.762Z,56.73
2023-04-14T11:23:52.188Z,55.05
2023-04-14T11:24:54.685Z,55.79
2023-04-14T11:25:56.991Z,56.02
2023-04-14T11:26:59.439Z,53.68
2023-04-14T11:28:01.926Z,56.03
2023-04-14T11:29:04.281Z,54.20
2023-04-14T11:30:06.820Z,53.57
2023-04-14T11:31:09.179Z,53.68
2023-04-14T11:32:13.243Z,55.34
2023-04-14T11:33:15.552Z,52.67
2023-04-14T11:34:19.630Z,55.46
2023-04-14T11:35:23.505Z,52.21
2023-04-14T11:36:27.435Z,52.11
2023-04-14T11:37:29.764Z,53.05
2023-04-14T11:38:33.812Z,53.94
2023-04-14T11:48:06.634Z,49.99
2023-04-14T11:49:08.946Z,50.61
2023-04-14T11:50:11.434Z,50.95
2023-04-14T11:51:14.099Z,48.97
2023-04-14T11:52:18.118Z,49.27
2023-04-14T11:53:21.463Z,48.76
2023-04-14T11:54:23.815Z,48.04
2023-04-14T11:55:26.242Z,47.50
2023-04-14T11:56:28.599Z,49.82
2023-04-14T11:57:31.044Z,51.21
2023-04-14T11:58:33.497Z,49.55
2023-04-14T11:59:36.034Z,50.06
2023-04-14T12:00:38.517Z,50.01
2023-04-14T12:01:40.950Z,50.37
2023-04-14T12:02:45.278Z,48.63
2023-04-14T12:03:47.533Z,49.46
2023-04-14T12:04:50.563Z,49.45
2023-04-14T12:05:53.839Z,49.52
2023-04-14T12:06:56.159Z,49.78
2023-04-14T12:07:58.636Z,46.71
2023-04-14T12:09:01.258Z,45.41
2023-04-14T12:10:03.480Z,43.08
2023-04-14T12:11:07.587Z,43.16
2023-04-14T12:12:09.954Z,46.27
2023-04-14T12:13:12.482Z,44.29
2023-04-14T12:14:16.450Z,44.82
2023-04-14T12:15:18.856Z,46.26
2023-04-14T12:16:21.281Z,44.09
2023-04-14T12:17:23.765Z,45.28
2023-04-14T12:18:26.189Z,43.77
2023-04-14T12:19:30.278Z,44.84
2023-04-14T12:20:32.595Z,42.72
2023-04-14T12:21:35.040Z,42.27
2023-04-14T12:22:37.830Z,41.22
2023-04-14T12:23:40.149Z,44.25
2023-04-14T12:24:44.383Z,43.79
2023-04-14T12:25:46.665Z,40.92
2023-04-14T12:26:49.166Z,41.18
2023-04-14T12:27:51.586Z,38.72
2023-04-14T12:28:54.010Z,40.75
2023-04-14T12:29:58.045Z,40.28
2023-04-14T12:31:00.369Z,41.65
2023-04-14T12:32:04.444Z,43.86
2023-04-14T12:33:06.778Z,43.96
2023-04-14T12:34:10.808Z,46.69
2023-04-14T12:35:14.826Z,43.90
2023-04-14T12:36:17.048Z,45.02
2023-04-14T12:37:19.483Z,43.31
2023-04-14T12:38:23.504Z,39.39
2023-04-14T12:39:25.849Z,37.13
2023-04-14T12:40:28.281Z,36.23
2023-04-14T12:41:30.747Z,36.73
2023-04-14T12:42:33.201Z,35.19
2023-04-14T12:43:35.612Z,36.51
2023-04-14T12:44:39.645Z,35.69
2023-04-14T12:45:41.941Z,36.22
2023-04-14T12:46:44.414Z,38.36
2023-04-14T12:47:46.918Z,40.30
2023-04-14T12:48:49.309Z,39.03
2023-04-14T12:49:51.817Z,40.79
2023-04-14T12:50:54.240Z,40.75
2023-04-14T12:51:56.626Z,42.92
2023-04-14T12:52:59.153Z,40.61
2023-04-14T12:54:01.627Z,38.98
2023-04-14T12:55:07.382Z,39.08
2023-04-14T12:56:09.541Z,40.32
2023-04-14T12:57:13.645Z,41.40
2023-04-14T12:58:17.609Z,45.08
2023-04-14T12:59:19.984Z,44.81
2023-04-14T13:00:22.414Z,41.99
2023-04-14T13:01:24.990Z,42.54
2023-04-14T13:02:27.456Z,39.81
2023-04-14T13:03:29.921Z,38.41
2023-04-14T13:04:32.382Z,44.34
2023-04-14T13:05:37.394Z,41.64
2023-04-14T13:06:39.791Z,40.08
2023-04-14T13:07:43.870Z,38.89
2023-04-14T13:08:47.850Z,34.99
2023-04-14T13:09:51.830Z,34.87
2023-04-14T13:10:54.221Z,34.37
2023-04-14T13:11:56.627Z,35.28
2023-04-14T13:13:00.738Z,34.92
2023-04-14T13:14:03.076Z,34.18
2023-04-14T13:15:05.549Z,35.15
2023-04-14T13:16:14.303Z,34.44
2023-04-14T13:17:12.024Z,37.70
2023-04-14T13:18:14.406Z,37.61
2023-04-14T13:19:16.889Z,36.27
2023-04-14T13:20:19.327Z,37.01
2023-04-14T13:21:21.804Z,34.31
2023-04-14T13:22:24.315Z,35.04
2023-04-14T13:23:26.772Z,33.81
2023-04-14T13:24:29.246Z,34.20
2023-04-14T13:25:33.325Z,34.31
2023-04-14T13:26:35.851Z,33.92
2023-04-14T13:27:38.233Z,36.38
2023-04-14T13:28:40.722Z,34.55
2023-04-14T13:29:43.220Z,36.64
2023-04-14T13:30:45.796Z,35.21
2023-04-14T13:31:49.972Z,40.92
2023-04-14T13:32:57.948Z,35.93
2023-04-14T13:34:01.462Z,34.32
2023-04-14T13:35:05.173Z,32.92
2023-04-14T13:36:09.137Z,34.63
2023-04-14T13:37:11.587Z,39.27
2023-04-14T13:38:14.086Z,34.62
2023-04-14T13:39:16.795Z,34.39
2023-04-14T13:40:20.894Z,35.43
2023-04-14T13:41:24.856Z,36.68
2023-04-14T13:42:27.228Z,33.93
2023-04-14T13:43:31.311Z,34.05
2023-04-14T13:44:33.680Z,33.64
2023-04-14T13:45:36.251Z,34.48
2023-04-14T13:46:41.356Z,38.92
2023-04-14T13:47:41.379Z,35.61
2023-04-14T13:48:45.478Z,34.38
2023-04-14T13:49:47.862Z,32.18
2023-04-14T13:50:50.392Z,33.08
2023-04-14T13:51:52.881Z,31.29
2023-04-14T13:52:55.377Z,32.97
2023-04-14T13:53:57.870Z,31.84
2023-04-14T13:55:01.966Z,33.14
2023-04-14T13:56:04.230Z,31.65
2023-04-14T13:57:06.658Z,32.01
2023-04-14T13:58:10.766Z,33.00
2023-04-14T13:59:14.733Z,32.20
2023-04-14T14:00:18.731Z,31.93
2023-04-14T14:01:21.017Z,32.82
2023-04-14T14:02:25.129Z,32.49
2023-04-14T14:03:29.170Z,33.86
2023-04-14T14:04:30.014Z,36.28
2023-04-14T14:05:33.992Z,33.12
2023-04-14T14:06:36.352Z,33.05
2023-04-14T14:07:38.867Z,39.03
2023-04-14T14:08:41.400Z,31.78
2023-04-14T14:09:45.463Z,31.44
2023-04-14T14:10:47.830Z,32.70
2023-04-14T14:11:50.323Z,30.55
2023-04-14T14:12:52.815Z,31.81
2023-04-14T14:13:57.171Z,31.85
2023-04-14T14:15:01.015Z,30.91
2023-04-14T14:16:03.422Z,32.18
2023-04-14T14:17:05.792Z,33.40
2023-04-14T14:18:08.276Z,33.56
2023-04-14T14:19:10.766Z,35.82
2023-04-14T14:20:13.188Z,32.69
2023-04-14T14:21:15.656Z,34.97
2023-04-14T14:22:19.231Z,31.61
2023-04-14T14:23:21.590Z,30.74
2023-04-14T14:24:25.733Z,33.14
2023-04-14T14:25:27.957Z,35.24
2023-04-14T14:26:30.425Z,31.49
2023-04-14T14:27:32.940Z,31.49
2023-04-14T14:28:35.481Z,30.94
2023-04-14T14:29:39.782Z,31.25
2023-04-14T14:30:42.038Z,32.00
2023-04-14T14:31:44.537Z,30.92
2023-04-14T14:32:46.962Z,32.50
2023-04-14T14:33:49.468Z,33.22
2023-04-14T14:34:51.915Z,32.82
2023-04-14T14:35:56.045Z,33.70
2023-04-14T14:36:58.586Z,35.00
2023-04-14T14:38:01.179Z,34.20
2023-04-14T14:39:05.104Z,33.96
2023-04-14T14:40:09.091Z,31.94
2023-04-14T14:41:11.459Z,32.64
2023-04-14T14:42:13.872Z,32.78
2023-04-14T14:43:16.397Z,31.50
2023-04-14T14:44:18.857Z,31.27
2023-04-14T14:45:22.251Z,34.35
2023-04-14T14:46:23.762Z,35.18
2023-04-14T14:47:26.245Z,33.79
2023-04-14T14:48:30.647Z,33.58
2023-04-14T14:49:32.977Z,35.28
2023-04-14T14:50:35.431Z,33.90
2023-04-14T14:51:37.910Z,32.89
2023-04-14T14:52:40.269Z,34.22
2023-04-14T14:53:42.961Z,33.10
2023-04-14T14:54:46.900Z,35.13
2023-04-14T14:55:49.336Z,35.13
2023-04-14T14:56:51.848Z,35.43
2023-04-14T14:57:55.911Z,36.56
2023-04-14T14:58:58.421Z,37.61
2023-04-14T15:00:00.872Z,36.61
2023-04-14T15:01:03.454Z,31.71
2023-04-14T15:02:05.984Z,31.15
2023-04-14T15:03:08.434Z,31.07
2023-04-14T15:04:10.846Z,31.46
2023-04-14T15:05:13.237Z,31.28
2023-04-14T15:06:17.305Z,33.51
2023-04-14T15:07:19.706Z,32.37
2023-04-14T15:08:22.184Z,30.56
2023-04-14T15:09:27.265Z,31.59
2023-04-14T15:10:31.167Z,32.18
2023-04-14T15:11:33.783Z,31.37
2023-04-14T15:12:37.597Z,32.17
2023-04-14T15:13:40.412Z,31.83
2023-04-14T15:14:44.267Z,32.35
2023-04-14T15:15:47.775Z,32.22
2023-04-14T15:16:51.729Z,33.33
2023-04-14T15:17:54.102Z,31.87
2023-04-14T15:18:56.535Z,32.03
2023-04-14T15:19:59.030Z,31.66
2023-04-14T15:21:01.435Z,32.43
2023-04-14T15:22:05.698Z,34.32
2023-04-14T15:23:08.444Z,30.96
2023-04-14T15:24:10.708Z,32.18
2023-04-14T15:25:13.182Z,31.50
2023-04-14T15:26:17.450Z,31.32
2023-04-14T15:27:21.442Z,32.02
2023-04-14T15:28:25.329Z,33.48
2023-04-14T15:29:27.645Z,33.71
2023-04-14T15:30:32.045Z,33.40
2023-04-14T15:31:34.328Z,34.08
2023-04-14T15:32:36.715Z,32.16
2023-04-14T15:33:39.257Z,30.64
2023-04-14T15:34:43.314Z,33.32
2023-04-14T15:35:45.712Z,32.34
2023-04-14T15:36:49.710Z,33.61
2023-04-14T15:37:52.040Z,33.52
2023-04-14T15:38:56.146Z,33.88
2023-04-14T15:39:58.533Z,33.40
2023-04-14T15:41:01.005Z,33.04
2023-04-14T15:42:03.474Z,34.20
2023-04-14T15:43:07.607Z,34.08
2023-04-14T15:44:11.499Z,33.26
2023-04-14T15:45:13.901Z,31.93
2023-04-14T15:46:17.970Z,31.89
2023-04-14T15:47:20.328Z,33.59
2023-04-14T15:48:24.396Z,32.35
2023-04-14T15:49:26.783Z,32.00
2023-04-14T15:50:30.885Z,31.21
2023-04-14T15:51:33.259Z,31.62
2023-04-14T15:52:35.716Z,33.02
2023-04-14T15:53:39.790Z,31.86
2023-04-14T15:54:42.110Z,33.42
2023-04-14T15:55:44.601Z,34.06
2023-04-14T15:56:47.036Z,33.26
2023-04-14T15:57:51.136Z,33.26
2023-04-14T15:58:53.529Z,33.00
2023-04-14T15:59:57.607Z,33.56
2023-04-14T16:01:01.576Z,31.83
2023-04-14T16:02:03.807Z,33.94
2023-04-14T16:03:06.429Z,32.98
2023-04-14T16:04:09.162Z,32.98
2023-04-14T16:05:11.477Z,34.41
2023-04-14T16:06:13.985Z,32.50
2023-04-14T16:07:16.571Z,32.15
2023-04-14T16:08:18.975Z,33.01
2023-04-14T16:09:21.377Z,33.61
2023-04-14T16:10:23.891Z,32.48
2023-04-14T16:11:26.312Z,32.00
2023-04-14T16:12:28.799Z,34.07
2023-04-14T16:13:32.211Z,34.17
2023-04-14T16:14:34.676Z,34.08
2023-04-14T16:15:37.141Z,31.46
2023-04-14T16:16:39.501Z,30.00
2023-04-14T16:17:44.640Z,30.49
2023-04-14T16:18:46.925Z,32.39
2023-04-14T16:19:49.313Z,32.59
2023-04-14T16:20:53.280Z,34.92
2023-04-14T16:21:57.207Z,33.98
2023-04-14T16:22:59.512Z,35.37
2023-04-14T16:24:02.226Z,33.14
2023-04-14T16:25:04.566Z,32.01
2023-04-14T16:26:08.569Z,30.57
2023-04-14T16:27:10.884Z,30.90
2023-04-14T16:28:13.274Z,31.60
2023-04-14T16:29:17.399Z,31.26
2023-04-14T16:30:19.775Z,31.25
2023-04-14T16:31:22.187Z,31.78
2023-04-14T16:32:24.646Z,33.73
2023-04-14T16:33:28.094Z,31.97
2023-04-14T16:34:32.011Z,32.88
2023-04-14T16:35:34.380Z,31.87
2023-04-14T16:36:39.205Z,35.01
2023-04-14T16:37:40.847Z,34.54
2023-04-14T16:38:44.826Z,33.62
2023-04-14T16:39:48.688Z,32.75
2023-04-14T16:40:52.661Z,33.30
2023-04-14T16:41:54.980Z,32.18
2023-04-14T16:42:59.240Z,31.42
2023-04-14T16:44:01.827Z,30.03
2023-04-14T16:45:05.676Z,30.18
2023-04-14T16:46:09.618Z,31.71
2023-04-14T16:47:12.006Z,32.56
2023-04-14T16:48:16.847Z,33.74
2023-04-14T16:49:18.375Z,33.70
2023-04-14T16:50:22.416Z,33.19
2023-04-14T16:51:26.428Z,30.98
2023-04-14T16:52:28.667Z,32.87
2023-04-14T16:53:31.117Z,32.67
2023-04-14T16:54:35.159Z,32.10
2023-04-14T16:55:37.608Z,33.87
2023-04-14T16:56:41.665Z,33.01
2023-04-14T16:57:45.559Z,32.46
2023-04-14T16:58:49.482Z,34.47
2023-04-14T16:59:53.323Z,33.88
2023-04-14T17:00:55.615Z,34.14
2023-04-14T17:01:59.794Z,31.68
2023-04-14T17:03:02.158Z,32.13
2023-04-14T17:04:04.983Z,32.25
2023-04-14T17:05:08.632Z,32.43
2023-04-14T17:06:10.946Z,34.22
2023-04-14T17:07:15.070Z,31.92
2023-04-14T17:08:17.390Z,31.67
2023-04-14T17:09:19.844Z,32.73
2023-04-14T17:10:23.954Z,32.43
2023-04-14T17:11:27.852Z,33.34
2023-04-14T17:12:30.182Z,32.49
2023-04-14T17:13:34.251Z,35.06
2023-04-14T17:14:38.245Z,33.22
2023-04-14T17:15:42.102Z,35.28
2023-04-14T17:16:44.505Z,35.06
2023-04-14T17:17:47.186Z,34.22
2023-04-14T17:18:51.212Z,33.84
2023-04-14T17:19:55.040Z,33.95
2023-04-14T17:20:56.025Z,34.03
2023-04-14T17:21:58.424Z,34.94
2023-04-14T17:23:00.967Z,35.90
2023-04-14T17:24:03.466Z,33.15
2023-04-14T17:25:05.837Z,33.09
2023-04-14T17:26:08.349Z,33.37
2023-04-14T17:27:10.831Z,34.00
2023-04-14T17:28:14.826Z,33.34
2023-04-14T17:29:18.753Z,34.17
2023-04-14T17:30:22.590Z,36.08
2023-04-14T17:31:26.642Z,34.89
2023-04-14T17:32:28.901Z,37.32
2023-04-14T17:33:31.248Z,36.81
2023-04-14T17:34:33.702Z,38.65
2023-04-14T17:35:37.699Z,37.80
2023-04-14T17:36:40.026Z,38.22
2023-04-14T17:37:44.076Z,39.56
2023-04-14T17:38:46.356Z,39.31
2023-04-14T17:39:48.875Z,40.23
2023-04-14T17:40:52.716Z,40.81
2023-04-14T17:41:56.727Z,40.45
2023-04-14T17:42:59.038Z,41.52
2023-04-14T17:44:01.724Z,39.01
2023-04-14T17:45:03.898Z,41.29
2023-04-14T17:46:06.452Z,42.18
2023-04-14T17:47:08.817Z,43.00
2023-04-14T17:48:11.328Z,43.23
2023-04-14T17:49:15.564Z,43.27
2023-04-14T17:50:17.849Z,43.65
2023-04-14T17:51:20.278Z,43.94
2023-04-14T17:52:22.671Z,44.72
2023-04-14T17:53:26.728Z,44.49
2023-04-14T17:54:29.075Z,45.53
2023-04-14T17:55:31.517Z,45.83
2023-04-14T17:56:33.993Z,45.07
2023-04-14T17:57:36.291Z,44.56
2023-04-14T17:58:40.351Z,44.83
2023-04-14T17:59:42.677Z,45.28
2023-04-14T18:00:46.709Z,46.69
2023-04-14T18:01:49.147Z,46.12
2023-04-14T18:02:53.050Z,46.59
2023-04-14T18:03:56.934Z,47.34
2023-04-14T18:04:59.284Z,46.47
2023-04-14T18:06:01.745Z,46.64
2023-04-14T18:07:04.151Z,46.26
2023-04-14T18:08:08.166Z,46.58
2023-04-14T18:09:10.451Z,47.47
2023-04-14T18:10:14.472Z,48.10
2023-04-14T18:11:18.499Z,47.68
2023-04-14T18:12:22.293Z,47.61
2023-04-14T18:13:24.682Z,48.52
2023-04-14T18:14:28.635Z,48.65
2023-04-14T18:15:30.976Z,48.76
2023-04-14T18:16:35.221Z,48.87
2023-04-14T18:17:39.237Z,49.29
2023-04-14T18:18:43.099Z,49.34
2023-04-14T18:19:46.945Z,49.60
2023-04-14T18:20:49.291Z,49.97
2023-04-14T18:21:51.690Z,50.16
2023-04-14T18:22:54.161Z,50.91
2023-04-14T18:25:00.491Z,50.95
2023-04-14T18:28:07.722Z,51.04
2023-04-14T18:29:11.690Z,51.30
2023-04-14T18:38:42.500Z,52.28
2023-04-14T18:48:13.238Z,54.43
2023-04-14T18:57:47.716Z,56.17
2023-04-14T19:07:20.382Z,56.94
2023-04-14T19:16:53.297Z,58.34
2023-04-14T19:26:25.353Z,57.10
2023-04-14T19:35:59.860Z,57.92
2023-04-14T19:45:30.969Z,58.25
2023-04-14T19:46:33.362Z,58.25
2023-04-14T19:56:06.100Z,57.77
2023-04-14T20:05:39.611Z,63.75
2023-04-14T20:15:14.488Z,66.17
2023-04-14T20:24:47.541Z,68.68
2023-04-14T20:34:19.676Z,70.70
2023-04-14T20:43:52.558Z,71.43
2023-04-14T20:53:26.555Z,71.95
2023-04-14T21:03:01.823Z,71.42
2023-04-14T21:12:35.680Z,67.79
2023-04-14T21:22:09.159Z,67.46
2023-04-14T21:31:41.250Z,67.65
2023-04-14T21:41:14.272Z,68.42
2023-04-14T21:50:49.527Z,66.78
2023-04-14T22:00:23.181Z,65.38
2023-04-14T22:09:56.857Z,69.67
2023-04-14T22:19:28.048Z,72.12
2023-04-14T22:29:02.933Z,73.97
2023-04-14T22:38:34.412Z,74.96
2023-04-14T22:48:07.489Z,79.22
2023-04-14T22:57:40.707Z,82.12
2023-04-14T23:07:15.839Z,82.43
2023-04-14T23:16:49.048Z,82.25
2023-04-14T23:26:20.896Z,81.98
2023-04-14T23:35:55.433Z,83.09
2023-04-14T23:45:29.576Z,83.47
2023-04-14T23:55:02.520Z,84.36
